sensor_id;sensor_type;location;lat;lon;timestamp;P1;durP1;ratioP1;P2;durP2;ratioP2
54787;SDS011;59598;48.112;16.280;2022-08-18T00:00:43;4.93;;;2.13;;
54787;SDS011;59598;48.112;16.280;2022-08-18T00:03:14;5.90;;;1.67;;
54787;SDS011;59598;48.112;16.280;2022-08-18T00:05:46;2.15;;;1.70;;
54787;SDS011;59598;48.112;16.280;2022-08-18T00:08:20;2.63;;;2.03;;
54787;SDS011;59598;48.112;16.280;2022-08-18T00:10:54;3.13;;;2.05;;
54787;SDS011;59598;48.112;16.280;2022-08-18T00:15:59;2.00;;;1.80;;
54787;SDS011;59598;48.112;16.280;2022-08-18T00:18:31;2.47;;;2.10;;
54787;SDS011;59598;48.112;16.280;2022-08-18T00:21:05;2.28;;;1.80;;
54787;SDS011;59598;48.112;16.280;2022-08-18T00:23:39;2.08;;;1.60;;
54787;SDS011;59598;48.112;16.280;2022-08-18T00:26:11;2.83;;;1.98;;
54787;SDS011;59598;48.112;16.280;2022-08-18T00:28:45;3.88;;;2.03;;
54787;SDS011;59598;48.112;16.280;2022-08-18T00:31:16;2.97;;;2.33;;
54787;SDS011;59598;48.112;16.280;2022-08-18T00:36:27;4.65;;;2.47;;
54787;SDS011;59598;48.112;16.280;2022-08-18T00:39:01;2.72;;;2.28;;
54787;SDS011;59598;48.112;16.280;2022-08-18T00:41:36;2.45;;;2.17;;
54787;SDS011;59598;48.112;16.280;2022-08-18T00:44:10;2.92;;;1.75;;
54787;SDS011;59598;48.112;16.280;2022-08-18T00:46:48;2.58;;;2.15;;
54787;SDS011;59598;48.112;16.280;2022-08-18T00:49:19;5.47;;;2.35;;
54787;SDS011;59598;48.112;16.280;2022-08-18T00:51:52;3.25;;;2.25;;
54787;SDS011;59598;48.112;16.280;2022-08-18T00:54:27;5.03;;;2.17;;
54787;SDS011;59598;48.112;16.280;2022-08-18T00:57:07;2.85;;;1.73;;
54787;SDS011;59598;48.112;16.280;2022-08-18T00:59:42;3.40;;;2.25;;
54787;SDS011;59598;48.112;16.280;2022-08-18T01:02:24;2.78;;;2.08;;
54787;SDS011;59598;48.112;16.280;2022-08-18T01:05:21;2.72;;;2.30;;
54787;SDS011;59598;48.112;16.280;2022-08-18T01:07:59;2.30;;;2.10;;
54787;SDS011;59598;48.112;16.280;2022-08-18T01:10:31;5.63;;;2.22;;
54787;SDS011;59598;48.112;16.280;2022-08-18T01:13:03;2.35;;;1.85;;
54787;SDS011;59598;48.112;16.280;2022-08-18T01:15:38;4.97;;;2.75;;
54787;SDS011;59598;48.112;16.280;2022-08-18T01:18:10;2.85;;;1.90;;
54787;SDS011;59598;48.112;16.280;2022-08-18T01:23:57;2.90;;;2.08;;
54787;SDS011;59598;48.112;16.280;2022-08-18T01:26:40;2.78;;;2.22;;
54787;SDS011;59598;48.112;16.280;2022-08-18T01:29:19;2.60;;;1.95;;
54787;SDS011;59598;48.112;16.280;2022-08-18T01:31:53;2.72;;;1.90;;
54787;SDS011;59598;48.112;16.280;2022-08-18T01:34:25;3.30;;;2.03;;
54787;SDS011;59598;48.112;16.280;2022-08-18T01:36:57;3.88;;;2.35;;
54787;SDS011;59598;48.112;16.280;2022-08-18T01:39:29;3.00;;;2.35;;
54787;SDS011;59598;48.112;16.280;2022-08-18T01:42:03;3.85;;;2.65;;
54787;SDS011;59598;48.112;16.280;2022-08-18T01:44:35;3.90;;;2.38;;
54787;SDS011;59598;48.112;16.280;2022-08-18T01:47:11;4.35;;;2.47;;
54787;SDS011;59598;48.112;16.280;2022-08-18T01:49:43;6.97;;;2.20;;
54787;SDS011;59598;48.112;16.280;2022-08-18T01:52:21;5.35;;;2.70;;
54787;SDS011;59598;48.112;16.280;2022-08-18T01:54:57;2.88;;;2.15;;
54787;SDS011;59598;48.112;16.280;2022-08-18T01:57:30;3.55;;;2.30;;
54787;SDS011;59598;48.112;16.280;2022-08-18T02:00:02;3.28;;;2.60;;
54787;SDS011;59598;48.112;16.280;2022-08-18T02:02:34;3.25;;;2.78;;
54787;SDS011;59598;48.112;16.280;2022-08-18T02:05:09;3.40;;;2.08;;
54787;SDS011;59598;48.112;16.280;2022-08-18T02:07:50;3.28;;;2.35;;
54787;SDS011;59598;48.112;16.280;2022-08-18T02:10:21;4.10;;;2.35;;
54787;SDS011;59598;48.112;16.280;2022-08-18T02:12:57;2.55;;;2.33;;
54787;SDS011;59598;48.112;16.280;2022-08-18T02:15:28;3.00;;;2.58;;
54787;SDS011;59598;48.112;16.280;2022-08-18T02:17:59;4.68;;;2.40;;
54787;SDS011;59598;48.112;16.280;2022-08-18T02:20:31;2.45;;;2.25;;
54787;SDS011;59598;48.112;16.280;2022-08-18T02:23:02;3.03;;;2.70;;
54787;SDS011;59598;48.112;16.280;2022-08-18T02:25:36;3.97;;;2.53;;
54787;SDS011;59598;48.112;16.280;2022-08-18T02:28:12;3.95;;;2.45;;
54787;SDS011;59598;48.112;16.280;2022-08-18T02:33:18;3.60;;;2.40;;
54787;SDS011;59598;48.112;16.280;2022-08-18T02:35:53;3.67;;;2.78;;
54787;SDS011;59598;48.112;16.280;2022-08-18T02:38:25;4.50;;;2.53;;
54787;SDS011;59598;48.112;16.280;2022-08-18T02:40:57;3.80;;;2.75;;
54787;SDS011;59598;48.112;16.280;2022-08-18T02:43:34;4.47;;;2.63;;
54787;SDS011;59598;48.112;16.280;2022-08-18T02:46:08;3.42;;;2.85;;
54787;SDS011;59598;48.112;16.280;2022-08-18T02:48:40;4.30;;;2.58;;
54787;SDS011;59598;48.112;16.280;2022-08-18T02:51:16;3.58;;;2.72;;
54787;SDS011;59598;48.112;16.280;2022-08-18T02:53:48;3.20;;;2.28;;
54787;SDS011;59598;48.112;16.280;2022-08-18T02:56:21;5.65;;;3.08;;
54787;SDS011;59598;48.112;16.280;2022-08-18T02:59:02;3.33;;;2.90;;
54787;SDS011;59598;48.112;16.280;2022-08-18T03:01:37;3.25;;;2.53;;
54787;SDS011;59598;48.112;16.280;2022-08-18T03:04:14;3.38;;;2.55;;
54787;SDS011;59598;48.112;16.280;2022-08-18T03:06:58;3.90;;;2.58;;
54787;SDS011;59598;48.112;16.280;2022-08-18T03:09:34;5.80;;;2.65;;
54787;SDS011;59598;48.112;16.280;2022-08-18T03:12:09;4.10;;;2.90;;
54787;SDS011;59598;48.112;16.280;2022-08-18T03:14:42;3.97;;;3.10;;
54787;SDS011;59598;48.112;16.280;2022-08-18T03:19:48;3.65;;;2.70;;
54787;SDS011;59598;48.112;16.280;2022-08-18T03:22:24;3.53;;;2.63;;
54787;SDS011;59598;48.112;16.280;2022-08-18T03:25:00;3.30;;;2.63;;
54787;SDS011;59598;48.112;16.280;2022-08-18T03:27:37;7.57;;;2.85;;
54787;SDS011;59598;48.112;16.280;2022-08-18T03:30:11;4.90;;;2.53;;
54787;SDS011;59598;48.112;16.280;2022-08-18T03:32:44;5.75;;;3.10;;
54787;SDS011;59598;48.112;16.280;2022-08-18T03:35:19;5.07;;;2.35;;
54787;SDS011;59598;48.112;16.280;2022-08-18T03:37:52;3.22;;;2.67;;
54787;SDS011;59598;48.112;16.280;2022-08-18T03:40:25;3.63;;;2.42;;
54787;SDS011;59598;48.112;16.280;2022-08-18T03:43:00;4.45;;;2.90;;
54787;SDS011;59598;48.112;16.280;2022-08-18T03:45:37;7.50;;;2.63;;
54787;SDS011;59598;48.112;16.280;2022-08-18T03:48:11;2.88;;;2.58;;
54787;SDS011;59598;48.112;16.280;2022-08-18T03:51:00;8.35;;;2.58;;
54787;SDS011;59598;48.112;16.280;2022-08-18T03:53:34;4.00;;;2.88;;
54787;SDS011;59598;48.112;16.280;2022-08-18T03:56:08;5.33;;;2.80;;
54787;SDS011;59598;48.112;16.280;2022-08-18T03:58:48;3.30;;;2.55;;
54787;SDS011;59598;48.112;16.280;2022-08-18T04:01:23;7.72;;;3.15;;
54787;SDS011;59598;48.112;16.280;2022-08-18T04:06:33;2.90;;;2.33;;
54787;SDS011;59598;48.112;16.280;2022-08-18T04:09:09;3.90;;;2.60;;
54787;SDS011;59598;48.112;16.280;2022-08-18T04:11:51;5.32;;;2.95;;
54787;SDS011;59598;48.112;16.280;2022-08-18T04:14:25;5.55;;;3.10;;
54787;SDS011;59598;48.112;16.280;2022-08-18T04:17:02;6.07;;;3.40;;
54787;SDS011;59598;48.112;16.280;2022-08-18T04:19:42;5.57;;;2.92;;
54787;SDS011;59598;48.112;16.280;2022-08-18T04:22:13;3.50;;;2.58;;
54787;SDS011;59598;48.112;16.280;2022-08-18T04:24:47;3.95;;;2.85;;
54787;SDS011;59598;48.112;16.280;2022-08-18T04:27:21;6.47;;;3.90;;
54787;SDS011;59598;48.112;16.280;2022-08-18T04:29:52;4.65;;;2.83;;
54787;SDS011;59598;48.112;16.280;2022-08-18T04:32:26;3.90;;;2.83;;
54787;SDS011;59598;48.112;16.280;2022-08-18T04:35:03;5.13;;;2.92;;
54787;SDS011;59598;48.112;16.280;2022-08-18T04:40:14;4.40;;;2.70;;
54787;SDS011;59598;48.112;16.280;2022-08-18T04:42:46;4.20;;;3.08;;
54787;SDS011;59598;48.112;16.280;2022-08-18T04:45:23;4.13;;;2.63;;
54787;SDS011;59598;48.112;16.280;2022-08-18T04:47:57;4.40;;;3.05;;
54787;SDS011;59598;48.112;16.280;2022-08-18T04:50:28;3.95;;;2.88;;
54787;SDS011;59598;48.112;16.280;2022-08-18T04:53:02;4.03;;;2.90;;
54787;SDS011;59598;48.112;16.280;2022-08-18T04:55:53;6.00;;;2.95;;
54787;SDS011;59598;48.112;16.280;2022-08-18T04:58:33;3.95;;;3.20;;
54787;SDS011;59598;48.112;16.280;2022-08-18T05:01:09;3.83;;;2.75;;
54787;SDS011;59598;48.112;16.280;2022-08-18T05:03:41;4.43;;;3.03;;
54787;SDS011;59598;48.112;16.280;2022-08-18T05:06:12;4.18;;;3.00;;
54787;SDS011;59598;48.112;16.280;2022-08-18T05:08:43;5.68;;;2.88;;
54787;SDS011;59598;48.112;16.280;2022-08-18T05:11:18;7.90;;;3.30;;
54787;SDS011;59598;48.112;16.280;2022-08-18T05:13:58;4.43;;;3.10;;
54787;SDS011;59598;48.112;16.280;2022-08-18T05:16:35;4.10;;;3.08;;
54787;SDS011;59598;48.112;16.280;2022-08-18T05:19:10;6.63;;;3.22;;
54787;SDS011;59598;48.112;16.280;2022-08-18T05:21:44;4.85;;;3.58;;
54787;SDS011;59598;48.112;16.280;2022-08-18T05:24:20;4.90;;;2.97;;
54787;SDS011;59598;48.112;16.280;2022-08-18T05:26:53;4.70;;;3.28;;
54787;SDS011;59598;48.112;16.280;2022-08-18T05:32:08;4.70;;;2.95;;
54787;SDS011;59598;48.112;16.280;2022-08-18T05:34:39;4.45;;;3.08;;
54787;SDS011;59598;48.112;16.280;2022-08-18T05:39:57;5.20;;;3.10;;
54787;SDS011;59598;48.112;16.280;2022-08-18T05:42:34;3.70;;;2.90;;
54787;SDS011;59598;48.112;16.280;2022-08-18T05:45:12;3.45;;;2.80;;
54787;SDS011;59598;48.112;16.280;2022-08-18T05:47:46;4.15;;;3.25;;
54787;SDS011;59598;48.112;16.280;2022-08-18T05:50:18;4.30;;;3.35;;
54787;SDS011;59598;48.112;16.280;2022-08-18T05:52:57;4.55;;;3.30;;
54787;SDS011;59598;48.112;16.280;2022-08-18T05:55:45;7.72;;;3.38;;
54787;SDS011;59598;48.112;16.280;2022-08-18T05:58:47;4.47;;;2.85;;
54787;SDS011;59598;48.112;16.280;2022-08-18T06:01:29;4.40;;;2.85;;
54787;SDS011;59598;48.112;16.280;2022-08-18T06:04:59;4.03;;;3.63;;
54787;SDS011;59598;48.112;16.280;2022-08-18T06:07:15;3.58;;;2.92;;
54787;SDS011;59598;48.112;16.280;2022-08-18T06:09:57;5.25;;;3.33;;
54787;SDS011;59598;48.112;16.280;2022-08-18T06:15:14;5.22;;;2.90;;
54787;SDS011;59598;48.112;16.280;2022-08-18T06:17:53;3.45;;;2.85;;
54787;SDS011;59598;48.112;16.280;2022-08-18T06:32:28;2.78;;;2.53;;
54787;SDS011;59598;48.112;16.280;2022-08-18T06:41:04;2.80;;;2.50;;
54787;SDS011;59598;48.112;16.280;2022-08-18T06:43:42;3.00;;;2.45;;
54787;SDS011;59598;48.112;16.280;2022-08-18T06:52:31;3.13;;;2.38;;
54787;SDS011;59598;48.112;16.280;2022-08-18T06:55:11;2.63;;;2.42;;
54787;SDS011;59598;48.112;16.280;2022-08-18T06:57:54;2.47;;;2.22;;
54787;SDS011;59598;48.112;16.280;2022-08-18T07:00:32;2.97;;;2.43;;
54787;SDS011;59598;48.112;16.280;2022-08-18T07:05:37;2.33;;;1.95;;
54787;SDS011;59598;48.112;16.280;2022-08-18T07:09:19;2.60;;;2.28;;
54787;SDS011;59598;48.112;16.280;2022-08-18T07:12:28;3.33;;;2.78;;
54787;SDS011;59598;48.112;16.280;2022-08-18T07:14:58;4.20;;;2.80;;
54787;SDS011;59598;48.112;16.280;2022-08-18T07:17:35;3.55;;;2.20;;
54787;SDS011;59598;48.112;16.280;2022-08-18T07:25:40;3.40;;;2.53;;
54787;SDS011;59598;48.112;16.280;2022-08-18T07:31:10;4.15;;;2.70;;
54787;SDS011;59598;48.112;16.280;2022-08-18T07:34:00;3.35;;;2.53;;
54787;SDS011;59598;48.112;16.280;2022-08-18T07:39:23;4.13;;;2.15;;
54787;SDS011;59598;48.112;16.280;2022-08-18T07:42:15;2.60;;;2.22;;
54787;SDS011;59598;48.112;16.280;2022-08-18T07:44:59;2.90;;;2.13;;
54787;SDS011;59598;48.112;16.280;2022-08-18T07:50:17;3.38;;;2.47;;
54787;SDS011;59598;48.112;16.280;2022-08-18T07:52:56;2.45;;;2.00;;
54787;SDS011;59598;48.112;16.280;2022-08-18T07:55:38;4.22;;;2.40;;
54787;SDS011;59598;48.112;16.280;2022-08-18T08:01:05;2.92;;;2.50;;
54787;SDS011;59598;48.112;16.280;2022-08-18T08:12:30;3.78;;;2.42;;
54787;SDS011;59598;48.112;16.280;2022-08-18T08:15:30;4.80;;;2.63;;
54787;SDS011;59598;48.112;16.280;2022-08-18T08:21:30;2.53;;;2.30;;
54787;SDS011;59598;48.112;16.280;2022-08-18T08:24:15;3.55;;;2.40;;
54787;SDS011;59598;48.112;16.280;2022-08-18T08:27:29;3.42;;;2.20;;
54787;SDS011;59598;48.112;16.280;2022-08-18T08:32:33;2.72;;;2.10;;
54787;SDS011;59598;48.112;16.280;2022-08-18T08:35:12;3.10;;;2.30;;
54787;SDS011;59598;48.112;16.280;2022-08-18T08:38:00;2.75;;;2.50;;
54787;SDS011;59598;48.112;16.280;2022-08-18T08:40:44;2.88;;;2.60;;
54787;SDS011;59598;48.112;16.280;2022-08-18T08:43:36;2.67;;;2.47;;
54787;SDS011;59598;48.112;16.280;2022-08-18T08:46:16;2.72;;;2.53;;
54787;SDS011;59598;48.112;16.280;2022-08-18T08:48:55;2.65;;;2.42;;
54787;SDS011;59598;48.112;16.280;2022-08-18T08:51:38;5.13;;;2.60;;
54787;SDS011;59598;48.112;16.280;2022-08-18T08:54:25;2.20;;;2.00;;
54787;SDS011;59598;48.112;16.280;2022-08-18T08:57:07;3.20;;;2.75;;
54787;SDS011;59598;48.112;16.280;2022-08-18T08:59:44;2.83;;;2.20;;
54787;SDS011;59598;48.112;16.280;2022-08-18T09:19:24;3.92;;;2.65;;
54787;SDS011;59598;48.112;16.280;2022-08-18T09:37:22;3.00;;;2.53;;
54787;SDS011;59598;48.112;16.280;2022-08-18T09:40:58;3.00;;;2.28;;
54787;SDS011;59598;48.112;16.280;2022-08-18T09:43:59;2.85;;;2.25;;
54787;SDS011;59598;48.112;16.280;2022-08-18T09:54:57;2.40;;;2.20;;
54787;SDS011;59598;48.112;16.280;2022-08-18T09:57:37;3.08;;;2.75;;
54787;SDS011;59598;48.112;16.280;2022-08-18T10:05:30;3.38;;;2.58;;
54787;SDS011;59598;48.112;16.280;2022-08-18T10:16:55;4.75;;;3.00;;
54787;SDS011;59598;48.112;16.280;2022-08-18T10:19:39;3.70;;;2.40;;
54787;SDS011;59598;48.112;16.280;2022-08-18T10:22:34;4.25;;;2.70;;
54787;SDS011;59598;48.112;16.280;2022-08-18T10:28:09;5.30;;;2.70;;
54787;SDS011;59598;48.112;16.280;2022-08-18T10:31:05;4.15;;;2.97;;
54787;SDS011;59598;48.112;16.280;2022-08-18T10:36:48;6.13;;;3.60;;
54787;SDS011;59598;48.112;16.280;2022-08-18T10:44:42;3.03;;;2.63;;
54787;SDS011;59598;48.112;16.280;2022-08-18T10:47:25;2.97;;;2.40;;
54787;SDS011;59598;48.112;16.280;2022-08-18T10:50:03;4.20;;;3.13;;
54787;SDS011;59598;48.112;16.280;2022-08-18T11:01:38;3.58;;;2.58;;
54787;SDS011;59598;48.112;16.280;2022-08-18T11:04:58;6.35;;;2.97;;
54787;SDS011;59598;48.112;16.280;2022-08-18T11:07:28;5.82;;;2.30;;
54787;SDS011;59598;48.112;16.280;2022-08-18T11:10:41;5.90;;;2.92;;
54787;SDS011;59598;48.112;16.280;2022-08-18T11:13:21;5.80;;;2.60;;
54787;SDS011;59598;48.112;16.280;2022-08-18T11:16:33;11.35;;;2.90;;
54787;SDS011;59598;48.112;16.280;2022-08-18T11:19:15;3.72;;;2.72;;
54787;SDS011;59598;48.112;16.280;2022-08-18T11:21:52;5.50;;;2.42;;
54787;SDS011;59598;48.112;16.280;2022-08-18T11:24:26;3.75;;;2.67;;
54787;SDS011;59598;48.112;16.280;2022-08-18T11:27:03;3.00;;;2.42;;
54787;SDS011;59598;48.112;16.280;2022-08-18T11:29:47;4.45;;;2.35;;
54787;SDS011;59598;48.112;16.280;2022-08-18T11:40:30;3.53;;;2.08;;
54787;SDS011;59598;48.112;16.280;2022-08-18T11:45:48;2.60;;;2.20;;
54787;SDS011;59598;48.112;16.280;2022-08-18T11:51:10;2.70;;;2.20;;
54787;SDS011;59598;48.112;16.280;2022-08-18T11:54:00;2.40;;;2.17;;
54787;SDS011;59598;48.112;16.280;2022-08-18T11:56:49;2.88;;;2.05;;
54787;SDS011;59598;48.112;16.280;2022-08-18T12:01:56;3.55;;;1.88;;
54787;SDS011;59598;48.112;16.280;2022-08-18T12:04:36;2.75;;;1.88;;
54787;SDS011;59598;48.112;16.280;2022-08-18T12:07:10;2.10;;;1.90;;
54787;SDS011;59598;48.112;16.280;2022-08-18T12:09:48;2.50;;;2.13;;
54787;SDS011;59598;48.112;16.280;2022-08-18T12:12:47;1.88;;;1.63;;
54787;SDS011;59598;48.112;16.280;2022-08-18T12:15:31;2.30;;;2.10;;
54787;SDS011;59598;48.112;16.280;2022-08-18T12:18:08;3.47;;;2.20;;
54787;SDS011;59598;48.112;16.280;2022-08-18T12:20:44;7.95;;;2.72;;
54787;SDS011;59598;48.112;16.280;2022-08-18T12:23:18;2.30;;;2.10;;
54787;SDS011;59598;48.112;16.280;2022-08-18T12:25:49;2.40;;;2.03;;
54787;SDS011;59598;48.112;16.280;2022-08-18T12:28:22;2.30;;;2.05;;
54787;SDS011;59598;48.112;16.280;2022-08-18T12:30:56;2.05;;;1.95;;
54787;SDS011;59598;48.112;16.280;2022-08-18T12:33:28;2.65;;;2.40;;
54787;SDS011;59598;48.112;16.280;2022-08-18T12:35:59;5.03;;;2.08;;
54787;SDS011;59598;48.112;16.280;2022-08-18T12:38:32;2.10;;;1.87;;
54787;SDS011;59598;48.112;16.280;2022-08-18T12:41:03;3.72;;;2.20;;
54787;SDS011;59598;48.112;16.280;2022-08-18T12:43:41;3.33;;;2.30;;
54787;SDS011;59598;48.112;16.280;2022-08-18T12:46:12;3.25;;;1.80;;
54787;SDS011;59598;48.112;16.280;2022-08-18T12:48:44;3.13;;;2.13;;
54787;SDS011;59598;48.112;16.280;2022-08-18T12:51:17;2.10;;;1.90;;
54787;SDS011;59598;48.112;16.280;2022-08-18T12:53:53;3.30;;;2.25;;
54787;SDS011;59598;48.112;16.280;2022-08-18T12:56:30;2.08;;;1.83;;
54787;SDS011;59598;48.112;16.280;2022-08-18T12:59:03;2.70;;;1.85;;
54787;SDS011;59598;48.112;16.280;2022-08-18T13:01:36;2.67;;;1.65;;
54787;SDS011;59598;48.112;16.280;2022-08-18T13:04:08;2.25;;;2.05;;
54787;SDS011;59598;48.112;16.280;2022-08-18T13:06:47;2.20;;;2.00;;
54787;SDS011;59598;48.112;16.280;2022-08-18T13:09:23;4.55;;;1.92;;
54787;SDS011;59598;48.112;16.280;2022-08-18T13:11:56;2.45;;;1.80;;
54787;SDS011;59598;48.112;16.280;2022-08-18T13:14:32;1.73;;;1.63;;
54787;SDS011;59598;48.112;16.280;2022-08-18T13:17:06;2.15;;;1.80;;
54787;SDS011;59598;48.112;16.280;2022-08-18T13:19:40;3.83;;;2.13;;
54787;SDS011;59598;48.112;16.280;2022-08-18T13:22:14;1.85;;;1.48;;
54787;SDS011;59598;48.112;16.280;2022-08-18T13:24:45;3.70;;;1.83;;
54787;SDS011;59598;48.112;16.280;2022-08-18T13:29:51;5.65;;;1.98;;
54787;SDS011;59598;48.112;16.280;2022-08-18T13:32:25;4.65;;;1.80;;
54787;SDS011;59598;48.112;16.280;2022-08-18T13:34:56;3.58;;;1.80;;
54787;SDS011;59598;48.112;16.280;2022-08-18T13:37:28;4.53;;;2.05;;
54787;SDS011;59598;48.112;16.280;2022-08-18T13:40:05;2.42;;;2.22;;
54787;SDS011;59598;48.112;16.280;2022-08-18T13:42:42;2.17;;;1.73;;
54787;SDS011;59598;48.112;16.280;2022-08-18T13:45:19;1.98;;;1.67;;
54787;SDS011;59598;48.112;16.280;2022-08-18T13:47:52;1.73;;;1.50;;
54787;SDS011;59598;48.112;16.280;2022-08-18T13:50:29;2.65;;;1.80;;
54787;SDS011;59598;48.112;16.280;2022-08-18T13:53:11;2.20;;;1.80;;
54787;SDS011;59598;48.112;16.280;2022-08-18T13:55:51;2.00;;;1.75;;
54787;SDS011;59598;48.112;16.280;2022-08-18T13:58:22;3.67;;;2.33;;
54787;SDS011;59598;48.112;16.280;2022-08-18T14:00:57;1.92;;;1.60;;
54787;SDS011;59598;48.112;16.280;2022-08-18T14:03:30;2.38;;;1.85;;
54787;SDS011;59598;48.112;16.280;2022-08-18T14:06:02;2.63;;;2.30;;
54787;SDS011;59598;48.112;16.280;2022-08-18T14:08:33;1.92;;;1.83;;
54787;SDS011;59598;48.112;16.280;2022-08-18T14:13:38;2.00;;;1.58;;
54787;SDS011;59598;48.112;16.280;2022-08-18T14:16:11;3.47;;;1.85;;
54787;SDS011;59598;48.112;16.280;2022-08-18T14:18:45;2.70;;;2.10;;
54787;SDS011;59598;48.112;16.280;2022-08-18T14:21:39;3.70;;;2.05;;
54787;SDS011;59598;48.112;16.280;2022-08-18T14:27:28;2.30;;;1.80;;
54787;SDS011;59598;48.112;16.280;2022-08-18T14:30:05;3.28;;;2.08;;
54787;SDS011;59598;48.112;16.280;2022-08-18T14:32:39;3.75;;;2.20;;
54787;SDS011;59598;48.112;16.280;2022-08-18T14:35:13;1.98;;;1.70;;
54787;SDS011;59598;48.112;16.280;2022-08-18T14:37:49;2.03;;;1.83;;
54787;SDS011;59598;48.112;16.280;2022-08-18T14:40:22;2.60;;;1.73;;
54787;SDS011;59598;48.112;16.280;2022-08-18T14:42:54;3.22;;;1.92;;
54787;SDS011;59598;48.112;16.280;2022-08-18T14:45:25;2.95;;;2.38;;
54787;SDS011;59598;48.112;16.280;2022-08-18T14:47:59;3.78;;;2.10;;
54787;SDS011;59598;48.112;16.280;2022-08-18T14:50:33;3.40;;;1.88;;
54787;SDS011;59598;48.112;16.280;2022-08-18T14:53:08;2.30;;;1.80;;
54787;SDS011;59598;48.112;16.280;2022-08-18T14:55:39;1.88;;;1.70;;
54787;SDS011;59598;48.112;16.280;2022-08-18T14:58:13;2.38;;;1.48;;
54787;SDS011;59598;48.112;16.280;2022-08-18T15:00:47;1.63;;;1.52;;
54787;SDS011;59598;48.112;16.280;2022-08-18T15:03:21;2.10;;;1.50;;
54787;SDS011;59598;48.112;16.280;2022-08-18T15:06:00;3.95;;;1.98;;
54787;SDS011;59598;48.112;16.280;2022-08-18T15:08:33;2.00;;;1.80;;
54787;SDS011;59598;48.112;16.280;2022-08-18T15:11:05;2.33;;;2.08;;
54787;SDS011;59598;48.112;16.280;2022-08-18T15:13:37;2.20;;;1.65;;
54787;SDS011;59598;48.112;16.280;2022-08-18T15:16:16;2.08;;;1.88;;
54787;SDS011;59598;48.112;16.280;2022-08-18T15:18:52;2.75;;;1.60;;
54787;SDS011;59598;48.112;16.280;2022-08-18T15:21:23;1.67;;;1.58;;
54787;SDS011;59598;48.112;16.280;2022-08-18T15:24:18;2.35;;;1.92;;
54787;SDS011;59598;48.112;16.280;2022-08-18T15:27:07;2.13;;;1.60;;
54787;SDS011;59598;48.112;16.280;2022-08-18T15:29:38;2.70;;;1.77;;
54787;SDS011;59598;48.112;16.280;2022-08-18T15:32:14;3.13;;;1.60;;
54787;SDS011;59598;48.112;16.280;2022-08-18T15:34:46;1.70;;;1.50;;
54787;SDS011;59598;48.112;16.280;2022-08-18T15:37:22;2.60;;;1.85;;
54787;SDS011;59598;48.112;16.280;2022-08-18T15:40:01;2.92;;;2.15;;
54787;SDS011;59598;48.112;16.280;2022-08-18T15:42:44;3.00;;;2.22;;
54787;SDS011;59598;48.112;16.280;2022-08-18T15:45:21;2.08;;;1.85;;
54787;SDS011;59598;48.112;16.280;2022-08-18T15:48:02;2.03;;;1.20;;
54787;SDS011;59598;48.112;16.280;2022-08-18T15:50:38;4.50;;;1.10;;
54787;SDS011;59598;48.112;16.280;2022-08-18T15:53:11;4.40;;;1.20;;
54787;SDS011;59598;48.112;16.280;2022-08-18T15:55:49;7.25;;;1.52;;
54787;SDS011;59598;48.112;16.280;2022-08-18T15:58:21;2.95;;;1.42;;
54787;SDS011;59598;48.112;16.280;2022-08-18T16:00:52;4.07;;;1.40;;
54787;SDS011;59598;48.112;16.280;2022-08-18T16:03:28;4.50;;;1.40;;
54787;SDS011;59598;48.112;16.280;2022-08-18T16:06:03;3.03;;;1.08;;
54787;SDS011;59598;48.112;16.280;2022-08-18T16:08:36;5.45;;;1.27;;
54787;SDS011;59598;48.112;16.280;2022-08-18T16:11:11;13.65;;;1.33;;
54787;SDS011;59598;48.112;16.280;2022-08-18T16:13:49;1.98;;;1.00;;
54787;SDS011;59598;48.112;16.280;2022-08-18T16:16:21;1.40;;;1.10;;
54787;SDS011;59598;48.112;16.280;2022-08-18T16:18:54;6.10;;;2.00;;
54787;SDS011;59598;48.112;16.280;2022-08-18T16:21:26;6.55;;;1.08;;
54787;SDS011;59598;48.112;16.280;2022-08-18T16:24:00;3.77;;;1.33;;
54787;SDS011;59598;48.112;16.280;2022-08-18T16:26:33;2.80;;;1.20;;
54787;SDS011;59598;48.112;16.280;2022-08-18T16:29:07;2.47;;;1.60;;
54787;SDS011;59598;48.112;16.280;2022-08-18T16:31:39;4.18;;;1.10;;
54787;SDS011;59598;48.112;16.280;2022-08-18T16:34:11;3.83;;;1.40;;
54787;SDS011;59598;48.112;16.280;2022-08-18T16:36:43;3.13;;;1.58;;
54787;SDS011;59598;48.112;16.280;2022-08-18T16:39:16;4.95;;;1.20;;
54787;SDS011;59598;48.112;16.280;2022-08-18T16:41:51;3.53;;;1.45;;
54787;SDS011;59598;48.112;16.280;2022-08-18T16:44:29;2.38;;;1.33;;
54787;SDS011;59598;48.112;16.280;2022-08-18T16:47:05;3.25;;;1.70;;
54787;SDS011;59598;48.112;16.280;2022-08-18T16:49:38;2.75;;;1.25;;
54787;SDS011;59598;48.112;16.280;2022-08-18T16:52:14;3.50;;;1.17;;
54787;SDS011;59598;48.112;16.280;2022-08-18T16:54:51;3.97;;;1.23;;
54787;SDS011;59598;48.112;16.280;2022-08-18T16:57:28;3.75;;;1.30;;
54787;SDS011;59598;48.112;16.280;2022-08-18T17:00:17;3.78;;;1.20;;
54787;SDS011;59598;48.112;16.280;2022-08-18T17:03:10;1.98;;;1.30;;
54787;SDS011;59598;48.112;16.280;2022-08-18T17:06:09;5.68;;;1.40;;
54787;SDS011;59598;48.112;16.280;2022-08-18T17:08:45;7.10;;;1.17;;
54787;SDS011;59598;48.112;16.280;2022-08-18T17:11:17;2.17;;;1.30;;
54787;SDS011;59598;48.112;16.280;2022-08-18T17:13:54;2.22;;;1.05;;
54787;SDS011;59598;48.112;16.280;2022-08-18T17:16:30;1.92;;;1.00;;
54787;SDS011;59598;48.112;16.280;2022-08-18T17:19:11;3.63;;;1.83;;
54787;SDS011;59598;48.112;16.280;2022-08-18T17:21:43;1.70;;;1.20;;
54787;SDS011;59598;48.112;16.280;2022-08-18T17:24:17;5.55;;;1.30;;
54787;SDS011;59598;48.112;16.280;2022-08-18T17:32:56;2.83;;;1.23;;
54787;SDS011;59598;48.112;16.280;2022-08-18T17:35:38;4.10;;;0.88;;
54787;SDS011;59598;48.112;16.280;2022-08-18T17:38:17;5.88;;;2.38;;
54787;SDS011;59598;48.112;16.280;2022-08-18T17:40:53;2.72;;;1.17;;
54787;SDS011;59598;48.112;16.280;2022-08-18T17:43:32;3.90;;;1.25;;
54787;SDS011;59598;48.112;16.280;2022-08-18T17:46:08;6.57;;;1.55;;
54787;SDS011;59598;48.112;16.280;2022-08-18T17:48:48;5.30;;;2.20;;
54787;SDS011;59598;48.112;16.280;2022-08-18T17:51:45;2.45;;;1.50;;
54787;SDS011;59598;48.112;16.280;2022-08-18T17:54:39;1.95;;;1.30;;
54787;SDS011;59598;48.112;16.280;2022-08-18T17:57:20;3.58;;;1.40;;
54787;SDS011;59598;48.112;16.280;2022-08-18T18:00:07;2.75;;;1.70;;
54787;SDS011;59598;48.112;16.280;2022-08-18T18:02:45;1.50;;;1.08;;
54787;SDS011;59598;48.112;16.280;2022-08-18T18:05:19;3.30;;;1.13;;
54787;SDS011;59598;48.112;16.280;2022-08-18T18:07:58;4.00;;;1.20;;
54787;SDS011;59598;48.112;16.280;2022-08-18T18:15:57;4.90;;;1.98;;
54787;SDS011;59598;48.112;16.280;2022-08-18T18:18:59;1.83;;;1.30;;
54787;SDS011;59598;48.112;16.280;2022-08-18T18:21:35;6.10;;;1.40;;
54787;SDS011;59598;48.112;16.280;2022-08-18T18:24:10;2.15;;;1.27;;
54787;SDS011;59598;48.112;16.280;2022-08-18T18:26:46;3.95;;;1.23;;
54787;SDS011;59598;48.112;16.280;2022-08-18T18:32:01;1.70;;;1.40;;
54787;SDS011;59598;48.112;16.280;2022-08-18T18:38:04;2.08;;;1.23;;
54787;SDS011;59598;48.112;16.280;2022-08-18T18:41:38;2.38;;;1.35;;
54787;SDS011;59598;48.112;16.280;2022-08-18T18:43:44;2.65;;;1.67;;
54787;SDS011;59598;48.112;16.280;2022-08-18T18:46:24;2.72;;;1.23;;
54787;SDS011;59598;48.112;16.280;2022-08-18T18:49:54;2.17;;;1.63;;
54787;SDS011;59598;48.112;16.280;2022-08-18T18:52:59;1.95;;;1.17;;
54787;SDS011;59598;48.112;16.280;2022-08-18T18:55:37;2.53;;;1.40;;
54787;SDS011;59598;48.112;16.280;2022-08-18T19:04:23;3.30;;;1.88;;